createdAt,value
2022-11-25T00:01:24.864Z,4.77
2022-11-25T00:03:53.475Z,4.73
2022-11-25T00:06:34.094Z,4.68
2022-11-25T00:09:06.200Z,4.65
2022-11-25T00:11:40.837Z,4.64
2022-11-25T00:14:14.686Z,4.68
2022-11-25T00:16:45.188Z,4.69
2022-11-25T00:19:21.334Z,4.66
2022-11-25T00:21:47.837Z,4.62
2022-11-25T00:24:17.747Z,4.56
2022-11-25T00:26:44.643Z,4.51
2022-11-25T00:29:14.530Z,4.46
2022-11-25T00:31:41.136Z,4.31
2022-11-25T00:34:12.408Z,4.25
2022-11-25T00:36:38.934Z,4.22
2022-11-25T00:39:09.534Z,4.23
2022-11-25T00:41:54.786Z,4.25
2022-11-25T00:44:37.818Z,4.27
2022-11-25T00:47:26.782Z,4.26
2022-11-25T00:49:55.629Z,4.24
2022-11-25T00:52:27.135Z,4.23
2022-11-25T00:54:54.956Z,4.23
2022-11-25T00:57:23.451Z,4.22
2022-11-25T00:59:50.744Z,4.19
2022-11-25T01:02:19.128Z,4.15
2022-11-25T01:04:46.569Z,4.11
2022-11-25T01:07:13.292Z,4.08
2022-11-25T01:09:40.139Z,4.05
2022-11-25T01:12:06.975Z,4.07
2022-11-25T01:14:33.816Z,4.07
2022-11-25T01:17:00.736Z,4.09
2022-11-25T01:19:27.651Z,4.08
2022-11-25T01:21:54.201Z,4.06
2022-11-25T01:24:28.245Z,4.09
2022-11-25T01:26:55.819Z,4.11
2022-11-25T01:29:22.476Z,4.09
2022-11-25T01:31:49.177Z,4.10
2022-11-25T01:34:19.790Z,4.08
2022-11-25T01:36:46.662Z,4.01
2022-11-25T01:39:32.085Z,3.94
2022-11-25T01:42:00.113Z,3.91
2022-11-25T01:44:33.504Z,3.98
2022-11-25T01:47:09.337Z,4.11
2022-11-25T01:49:46.437Z,4.16
2022-11-25T01:52:21.070Z,4.18
2022-11-25T01:55:01.624Z,4.21
2022-11-25T01:57:34.957Z,4.24
2022-11-25T02:00:06.349Z,4.30
2022-11-25T02:02:33.658Z,4.33
2022-11-25T02:05:03.494Z,4.41
2022-11-25T02:07:39.493Z,4.41
2022-11-25T02:10:11.485Z,4.40
2022-11-25T02:12:43.557Z,4.35
2022-11-25T02:15:10.649Z,4.29
2022-11-25T02:17:37.809Z,4.27
2022-11-25T02:20:14.339Z,4.23
2022-11-25T02:22:52.082Z,4.18
2022-11-25T02:25:26.154Z,4.11
2022-11-25T02:28:00.963Z,4.02
2022-11-25T02:30:29.469Z,3.91
2022-11-25T02:32:58.879Z,3.83
2022-11-25T02:35:39.765Z,3.76
2022-11-25T02:38:06.475Z,3.72
2022-11-25T02:40:37.748Z,3.68
2022-11-25T02:43:06.184Z,3.60
2022-11-25T02:46:03.954Z,3.56
2022-11-25T02:49:06.993Z,3.54
2022-11-25T02:51:23.950Z,3.56
2022-11-25T02:53:51.769Z,3.55
2022-11-25T02:56:23.132Z,3.58
2022-11-25T02:58:49.675Z,3.59
2022-11-25T03:01:18.582Z,3.69
2022-11-25T03:03:45.190Z,3.77
2022-11-25T03:06:11.645Z,3.90
2022-11-25T03:08:42.880Z,3.99
2022-11-25T03:11:09.544Z,4.08
2022-11-25T03:13:36.163Z,4.14
2022-11-25T03:16:02.790Z,4.15
2022-11-25T03:18:29.309Z,4.13
2022-11-25T03:20:56.476Z,4.14
2022-11-25T03:23:25.480Z,4.15
2022-11-25T03:25:54.942Z,4.09
2022-11-25T03:28:21.598Z,4.05
2022-11-25T03:30:48.225Z,4.00
2022-11-25T03:33:14.799Z,4.00
2022-11-25T03:35:42.812Z,4.05
2022-11-25T03:38:09.447Z,4.07
2022-11-25T03:40:35.924Z,4.10
2022-11-25T03:43:02.572Z,4.14
2022-11-25T03:45:31.292Z,4.17
2022-11-25T03:47:58.010Z,4.21
2022-11-25T03:50:24.507Z,4.22
2022-11-25T03:52:52.092Z,4.24
2022-11-25T03:55:18.601Z,4.25
2022-11-25T03:57:45.102Z,4.24
2022-11-25T04:00:20.317Z,4.22
2022-11-25T04:02:46.954Z,4.20
2022-11-25T04:05:13.596Z,4.18
2022-11-25T04:07:42.513Z,4.19
2022-11-25T04:10:09.676Z,4.17
2022-11-25T04:12:48.419Z,4.11
2022-11-25T04:15:16.993Z,4.04
2022-11-25T04:17:46.016Z,4.00
2022-11-25T04:20:15.639Z,3.94
2022-11-25T04:22:42.509Z,3.96
2022-11-25T04:25:09.890Z,3.90
2022-11-25T04:27:38.164Z,3.88
2022-11-25T04:30:06.065Z,3.84
2022-11-25T04:32:32.555Z,3.81
2022-11-25T04:34:59.198Z,3.77
2022-11-25T04:37:25.705Z,3.70
2022-11-25T04:39:52.226Z,3.66
2022-11-25T04:42:36.371Z,3.60
2022-11-25T04:45:24.747Z,3.54
2022-11-25T04:47:57.740Z,3.51
2022-11-25T04:50:28.053Z,3.47
2022-11-25T04:52:57.592Z,3.44
2022-11-25T04:55:28.645Z,3.46
2022-11-25T04:57:55.270Z,3.48
2022-11-25T05:00:24.501Z,3.48
2022-11-25T05:02:51.222Z,3.48
2022-11-25T05:05:17.744Z,3.50
2022-11-25T05:07:44.644Z,3.51
2022-11-25T05:10:11.775Z,3.54
2022-11-25T05:12:38.381Z,3.56
2022-11-25T05:15:06.562Z,3.59
2022-11-25T05:17:42.253Z,3.61
2022-11-25T05:20:11.203Z,3.58
2022-11-25T05:22:37.683Z,3.57
2022-11-25T05:25:14.249Z,3.56
2022-11-25T05:27:41.885Z,3.55
2022-11-25T05:30:09.325Z,3.56
2022-11-25T05:32:36.022Z,3.55
2022-11-25T05:35:02.497Z,3.55
2022-11-25T05:37:29.028Z,3.55
2022-11-25T05:39:55.746Z,3.54
2022-11-25T05:42:22.233Z,3.54
2022-11-25T05:44:48.914Z,3.54
2022-11-25T05:47:15.597Z,3.55
2022-11-25T05:49:42.320Z,3.56
2022-11-25T05:52:08.825Z,3.55
2022-11-25T05:54:35.643Z,3.55
2022-11-25T05:57:02.446Z,3.55
2022-11-25T05:59:32.943Z,3.58
2022-11-25T06:01:59.683Z,3.60
2022-11-25T06:04:26.161Z,3.62
2022-11-25T06:06:52.657Z,3.60
2022-11-25T06:09:19.408Z,3.60
2022-11-25T06:11:46.077Z,3.54
2022-11-25T06:14:12.614Z,3.48
2022-11-25T06:16:41.087Z,3.40
2022-11-25T06:19:07.649Z,3.36
2022-11-25T06:21:34.134Z,3.31
2022-11-25T06:24:02.822Z,3.28
2022-11-25T06:26:29.657Z,3.24
2022-11-25T06:28:56.636Z,3.23
2022-11-25T06:31:27.223Z,3.21
2022-11-25T06:33:55.544Z,3.20
2022-11-25T06:36:22.857Z,3.19
2022-11-25T06:38:52.337Z,3.20
2022-11-25T06:41:19.549Z,3.21
2022-11-25T06:43:46.160Z,3.22
2022-11-25T06:46:24.376Z,3.22
2022-11-25T06:48:52.045Z,3.20
2022-11-25T06:51:18.761Z,3.20
2022-11-25T06:53:47.420Z,3.18
2022-11-25T06:56:19.510Z,3.22
2022-11-25T06:58:47.274Z,3.23
2022-11-25T07:01:18.580Z,3.27
2022-11-25T07:03:47.014Z,3.32
2022-11-25T07:06:15.436Z,3.41
2022-11-25T07:08:44.178Z,3.49
2022-11-25T07:11:17.089Z,3.58
2022-11-25T07:13:44.259Z,3.65
2022-11-25T07:16:14.013Z,3.76
2022-11-25T07:18:41.485Z,3.88
2022-11-25T07:21:11.229Z,4.03
2022-11-25T07:23:40.429Z,4.26
2022-11-25T07:26:10.024Z,4.96
2022-11-25T07:28:37.649Z,5.69
2022-11-25T07:31:32.679Z,6.15
2022-11-25T07:34:05.050Z,6.50
2022-11-25T07:36:34.451Z,7.01
2022-11-25T07:39:05.961Z,7.42
2022-11-25T07:41:32.989Z,7.76
2022-11-25T07:44:04.192Z,7.25
2022-11-25T07:46:36.413Z,7.11
2022-11-25T07:49:05.764Z,7.03
2022-11-25T07:51:35.868Z,6.71
2022-11-25T07:54:04.323Z,6.56
2022-11-25T07:56:32.743Z,6.31
2022-11-25T07:59:01.368Z,6.02
2022-11-25T08:01:28.280Z,5.56
2022-11-25T08:03:59.553Z,5.44
2022-11-25T08:06:28.625Z,5.44
2022-11-25T08:08:57.001Z,5.43
2022-11-25T08:11:28.717Z,5.33
2022-11-25T08:13:56.362Z,5.24
2022-11-25T08:16:27.501Z,5.21
2022-11-25T08:19:03.348Z,5.13
2022-11-25T08:21:29.770Z,5.53
2022-11-25T08:23:56.814Z,5.53
2022-11-25T08:26:27.038Z,5.47
2022-11-25T08:28:54.344Z,5.48
2022-11-25T08:31:29.465Z,5.40
2022-11-25T08:34:00.523Z,5.37
2022-11-25T08:36:29.343Z,5.41
2022-11-25T08:39:00.232Z,5.47
2022-11-25T08:41:29.041Z,5.47
2022-11-25T08:43:57.916Z,5.43
2022-11-25T08:46:32.315Z,5.38
2022-11-25T08:48:59.005Z,5.35
2022-11-25T08:51:30.644Z,5.36
2022-11-25T08:54:03.893Z,5.34
2022-11-25T08:56:30.479Z,5.28
2022-11-25T08:58:57.037Z,5.17
2022-11-25T09:01:26.884Z,5.09
2022-11-25T09:03:56.868Z,4.99
2022-11-25T09:06:26.332Z,4.90
2022-11-25T09:08:57.302Z,4.87
2022-11-25T09:11:25.324Z,4.82
2022-11-25T09:13:52.012Z,4.83
2022-11-25T09:16:28.307Z,4.82
2022-11-25T09:18:56.356Z,4.81
2022-11-25T09:21:25.105Z,4.79
2022-11-25T09:23:54.970Z,4.85
2022-11-25T09:26:29.153Z,4.85
2022-11-25T09:28:57.555Z,4.89
2022-11-25T09:31:25.829Z,4.91
2022-11-25T09:33:52.366Z,4.96
2022-11-25T09:36:22.758Z,5.03
2022-11-25T09:38:50.096Z,5.10
2022-11-25T09:42:16.473Z,5.10
2022-11-25T09:48:15.025Z,5.20
2022-11-25T09:50:50.555Z,5.25
2022-11-25T09:53:32.437Z,5.34
2022-11-25T09:56:03.479Z,5.34
2022-11-25T09:58:43.362Z,5.36
2022-11-25T10:01:18.358Z,5.39
2022-11-25T10:03:55.856Z,5.38
2022-11-25T10:06:36.433Z,5.38
2022-11-25T10:09:18.492Z,5.40
2022-11-25T10:11:54.670Z,5.40
2022-11-25T10:14:44.655Z,5.34
2022-11-25T10:17:23.887Z,5.36
2022-11-25T10:20:01.749Z,5.41
2022-11-25T10:22:32.869Z,5.44
2022-11-25T10:25:12.554Z,5.48
2022-11-25T10:27:52.868Z,5.57
2022-11-25T10:30:27.449Z,5.77
2022-11-25T10:33:18.796Z,5.98
2022-11-25T10:36:06.815Z,6.14
2022-11-25T10:38:43.133Z,6.28
2022-11-25T10:41:18.646Z,6.36
2022-11-25T10:43:47.979Z,6.46
2022-11-25T10:46:22.451Z,6.53
2022-11-25T10:49:22.684Z,6.51
2022-11-25T10:51:50.817Z,6.44
2022-11-25T10:54:27.972Z,6.45
2022-11-25T10:57:01.336Z,6.56
2022-11-25T10:59:39.563Z,6.70
2022-11-25T11:02:19.234Z,6.81
2022-11-25T11:05:11.944Z,6.92
2022-11-25T11:07:44.633Z,7.04
2022-11-25T11:10:19.862Z,6.98
2022-11-25T11:13:02.091Z,6.87
2022-11-25T11:15:44.476Z,6.72
2022-11-25T11:18:20.730Z,6.71
2022-11-25T11:20:51.228Z,6.64
2022-11-25T11:23:17.842Z,6.65
2022-11-25T11:25:58.332Z,6.63
2022-11-25T11:28:35.004Z,6.58
2022-11-25T11:31:10.743Z,6.54
2022-11-25T11:33:44.656Z,6.47
2022-11-25T11:36:47.010Z,6.52
2022-11-25T11:40:00.874Z,6.58
2022-11-25T11:42:51.769Z,6.59
2022-11-25T11:45:23.858Z,6.47
2022-11-25T11:47:54.245Z,6.34
2022-11-25T11:50:50.225Z,6.28
2022-11-25T11:53:23.933Z,6.22
2022-11-25T11:56:33.799Z,6.19
2022-11-25T11:59:14.706Z,6.11
2022-11-25T12:01:43.966Z,6.12
2022-11-25T12:04:33.253Z,6.16
2022-11-25T12:07:07.656Z,6.15
2022-11-25T12:09:43.533Z,6.17
2022-11-25T12:12:13.474Z,6.17
2022-11-25T12:14:43.005Z,6.16
2022-11-25T12:17:23.349Z,6.13
2022-11-25T12:19:55.150Z,6.15
2022-11-25T12:22:28.917Z,6.18
2022-11-25T12:25:06.388Z,6.21
2022-11-25T12:27:44.457Z,6.26
2022-11-25T12:30:16.282Z,6.35
2022-11-25T12:33:13.058Z,6.48
2022-11-25T12:36:05.732Z,6.58
2022-11-25T12:38:56.703Z,6.68
2022-11-25T12:41:54.942Z,6.69
2022-11-25T12:44:50.385Z,6.78
2022-11-25T12:47:16.959Z,6.86
2022-11-25T12:49:47.225Z,6.96
2022-11-25T12:52:43.718Z,7.03
2022-11-25T12:55:25.403Z,7.08
2022-11-25T12:58:24.592Z,7.05
2022-11-25T13:01:18.677Z,7.09
2022-11-25T13:04:14.570Z,7.09
2022-11-25T13:06:46.961Z,7.07
2022-11-25T13:09:33.841Z,7.08
2022-11-25T13:12:13.081Z,7.08
2022-11-25T13:15:01.136Z,7.05
2022-11-25T13:17:30.521Z,7.02
2022-11-25T13:20:34.318Z,6.98
2022-11-25T13:23:13.209Z,6.94
2022-11-25T13:25:43.796Z,6.93
2022-11-25T13:28:32.685Z,7.08
2022-11-25T13:31:19.883Z,7.29
2022-11-25T13:33:46.596Z,7.39
2022-11-25T13:36:19.243Z,7.41
2022-11-25T13:38:48.775Z,7.50
2022-11-25T13:41:24.998Z,7.73
2022-11-25T13:44:06.700Z,7.79
2022-11-25T13:46:39.737Z,7.87
2022-11-25T13:49:22.570Z,7.95
2022-11-25T13:51:51.785Z,7.88
2022-11-25T13:54:25.415Z,7.83
2022-11-25T13:57:20.080Z,7.91
2022-11-25T13:59:55.978Z,7.82
2022-11-25T14:02:28.715Z,7.70
2022-11-25T14:05:02.144Z,7.65
2022-11-25T14:07:46.633Z,7.64
2022-11-25T14:10:25.331Z,7.78
2022-11-25T14:13:37.589Z,7.86
2022-11-25T14:16:30.803Z,7.99
2022-11-25T14:19:50.021Z,7.98
2022-11-25T14:22:31.292Z,7.93
2022-11-25T14:25:30.216Z,7.91
2022-11-25T14:28:09.348Z,7.91
2022-11-25T14:30:50.229Z,7.91
2022-11-25T14:33:36.443Z,7.94
2022-11-25T14:36:15.338Z,7.93
2022-11-25T14:38:59.529Z,7.91
2022-11-25T14:41:35.695Z,7.89
2022-11-25T14:44:08.426Z,7.85
2022-11-25T14:46:35.016Z,7.87
2022-11-25T14:49:03.291Z,7.84
2022-11-25T14:51:36.716Z,7.82
2022-11-25T14:54:09.192Z,7.83
2022-11-25T14:56:37.807Z,7.83
2022-11-25T14:59:08.095Z,7.79
2022-11-25T15:01:37.660Z,7.82
2022-11-25T15:04:07.836Z,7.80
2022-11-25T15:06:40.137Z,7.77
2022-11-25T15:09:21.164Z,7.71
2022-11-25T15:11:59.820Z,7.68
2022-11-25T15:14:34.446Z,7.63
2022-11-25T15:17:07.608Z,7.57
2022-11-25T15:19:36.136Z,7.51
2022-11-25T15:24:55.818Z,7.43
2022-11-25T15:27:28.563Z,7.37
2022-11-25T15:29:59.453Z,7.32
2022-11-25T15:32:29.259Z,7.23
2022-11-25T15:34:58.214Z,7.18
2022-11-25T15:37:26.804Z,7.10
2022-11-25T15:40:38.338Z,7.02
2022-11-25T15:43:10.319Z,6.98
2022-11-25T15:45:44.173Z,6.93
2022-11-25T15:48:26.063Z,6.88
2022-11-25T15:50:52.893Z,6.84
2022-11-25T15:53:33.160Z,6.78
2022-11-25T15:56:01.553Z,6.70
2022-11-25T15:58:28.329Z,6.65
2022-11-25T16:01:17.543Z,6.63
2022-11-25T16:03:47.007Z,6.63
2022-11-25T16:06:27.218Z,6.61
2022-11-25T16:09:00.109Z,6.58
2022-11-25T16:11:35.469Z,6.53
2022-11-25T16:14:23.468Z,6.46
2022-11-25T16:16:52.389Z,6.39
2022-11-25T16:19:21.291Z,6.32
2022-11-25T16:21:54.920Z,6.25
2022-11-25T16:24:35.128Z,6.13
2022-11-25T16:27:05.709Z,6.04
2022-11-25T16:29:50.323Z,5.95
2022-11-25T16:32:19.529Z,5.92
2022-11-25T16:34:46.562Z,5.83
2022-11-25T16:37:13.160Z,5.76
2022-11-25T16:39:41.571Z,5.69
2022-11-25T16:42:18.622Z,5.69
2022-11-25T16:44:50.491Z,5.67
2022-11-25T16:47:18.687Z,5.67
2022-11-25T16:49:47.187Z,5.72
2022-11-25T16:52:14.454Z,5.73
2022-11-25T16:54:41.834Z,5.68
2022-11-25T16:57:17.785Z,5.63
2022-11-25T16:59:49.683Z,5.58
2022-11-25T17:02:21.371Z,5.58
2022-11-25T17:04:48.853Z,5.55
2022-11-25T17:07:32.173Z,5.48
2022-11-25T17:10:08.295Z,5.34
2022-11-25T17:12:36.094Z,5.27
2022-11-25T17:15:06.355Z,5.22
2022-11-25T17:17:35.924Z,5.15
2022-11-25T17:20:02.606Z,5.06
2022-11-25T17:22:33.405Z,4.95
2022-11-25T17:25:04.521Z,4.86
2022-11-25T17:27:33.454Z,4.80
2022-11-25T17:30:03.833Z,4.76
2022-11-25T17:32:31.664Z,4.79
2022-11-25T17:34:58.237Z,4.80
2022-11-25T17:37:27.439Z,4.81
2022-11-25T17:39:56.113Z,4.82
2022-11-25T17:42:31.491Z,4.82
2022-11-25T17:44:58.381Z,4.81
2022-11-25T17:47:24.976Z,4.82
2022-11-25T17:49:52.218Z,4.86
2022-11-25T17:52:18.930Z,4.85
2022-11-25T17:54:45.469Z,4.84
2022-11-25T17:57:19.981Z,4.84
2022-11-25T17:59:46.766Z,4.86
2022-11-25T18:02:19.229Z,4.87
2022-11-25T18:04:48.462Z,4.89
2022-11-25T18:07:15.212Z,4.90
2022-11-25T18:09:41.845Z,4.93
2022-11-25T18:12:13.448Z,4.94
2022-11-25T18:14:42.793Z,4.99
2022-11-25T18:17:15.910Z,5.03
2022-11-25T18:19:42.802Z,5.09
2022-11-25T18:22:13.800Z,5.11
2022-11-25T18:24:43.959Z,5.16
2022-11-25T18:27:37.582Z,5.20
2022-11-25T18:30:07.308Z,5.23
2022-11-25T18:32:33.852Z,5.25
2022-11-25T18:35:00.374Z,5.29
2022-11-25T18:37:27.142Z,5.30
2022-11-25T18:39:53.601Z,5.31
2022-11-25T18:42:29.217Z,5.33
2022-11-25T18:44:56.360Z,5.34
2022-11-25T18:47:23.220Z,5.36
2022-11-25T18:49:55.423Z,5.38
2022-11-25T18:52:26.825Z,5.39
2022-11-25T18:54:53.387Z,5.38
2022-11-25T18:57:20.160Z,5.37
2022-11-25T18:59:52.752Z,5.36
2022-11-25T19:02:27.050Z,5.36
2022-11-25T19:04:55.811Z,5.38
2022-11-25T19:07:22.348Z,5.38
2022-11-25T19:09:50.611Z,5.36
2022-11-25T19:12:20.788Z,5.38
2022-11-25T19:14:48.368Z,5.35
2022-11-25T19:17:20.625Z,5.32
2022-11-25T19:19:47.423Z,5.30
2022-11-25T19:22:15.713Z,5.27
2022-11-25T19:24:44.479Z,5.26
2022-11-25T19:27:18.174Z,5.26
2022-11-25T19:29:46.566Z,5.23
2022-11-25T19:32:26.785Z,5.21
2022-11-25T19:34:58.181Z,5.19
2022-11-25T19:37:30.777Z,5.14
2022-11-25T19:39:57.474Z,5.10
2022-11-25T19:42:33.506Z,5.10
2022-11-25T19:45:00.607Z,5.09
2022-11-25T19:47:30.754Z,5.06
2022-11-25T19:50:02.410Z,5.05
2022-11-25T19:52:38.039Z,5.04
2022-11-25T19:55:23.458Z,5.05
2022-11-25T19:57:51.240Z,5.05
2022-11-25T20:00:19.857Z,5.06
2022-11-25T20:02:49.121Z,5.07
2022-11-25T20:05:19.333Z,5.10
2022-11-25T20:07:47.128Z,5.10
2022-11-25T20:10:18.706Z,5.13
2022-11-25T20:12:45.327Z,5.13
2022-11-25T20:15:16.721Z,5.14
2022-11-25T20:17:47.889Z,5.15
2022-11-25T20:20:28.101Z,5.19
2022-11-25T20:22:59.489Z,5.16
2022-11-25T20:25:26.985Z,5.18
2022-11-25T20:27:53.904Z,5.19
2022-11-25T20:30:23.392Z,5.20
2022-11-25T20:32:50.392Z,5.22
2022-11-25T20:35:17.594Z,5.25
2022-11-25T20:37:53.198Z,5.26
2022-11-25T20:40:48.226Z,5.26
2022-11-25T20:43:41.448Z,5.28
2022-11-25T20:46:21.615Z,5.27
2022-11-25T20:48:53.240Z,5.28
2022-11-25T20:51:21.678Z,5.27
2022-11-25T20:53:52.221Z,5.30
2022-11-25T20:56:21.169Z,5.32
2022-11-25T20:58:47.960Z,5.32
2022-11-25T21:01:16.921Z,5.33
2022-11-25T21:03:52.049Z,5.34
2022-11-25T21:06:30.543Z,5.38
2022-11-25T21:08:59.841Z,5.40
2022-11-25T21:11:28.068Z,5.38
2022-11-25T21:13:59.217Z,5.38
2022-11-25T21:16:28.191Z,5.37
2022-11-25T21:18:56.947Z,5.33
2022-11-25T21:21:30.172Z,5.26
2022-11-25T21:23:57.213Z,5.21
2022-11-25T21:26:26.820Z,5.16
2022-11-25T21:28:54.762Z,5.13
2022-11-25T21:31:25.891Z,5.14
2022-11-25T21:34:03.203Z,5.14
2022-11-25T21:36:31.337Z,5.14
2022-11-25T21:39:06.907Z,5.06
2022-11-25T21:41:34.460Z,4.99
2022-11-25T21:44:04.254Z,4.91
2022-11-25T21:46:32.493Z,4.93
2022-11-25T21:49:00.792Z,4.91
2022-11-25T21:51:27.332Z,4.90
2022-11-25T21:53:54.475Z,4.94
2022-11-25T21:56:30.820Z,4.91
2022-11-25T21:59:01.502Z,4.92
2022-11-25T22:01:28.875Z,4.74
2022-11-25T22:03:55.570Z,4.56
2022-11-25T22:06:29.728Z,4.46
2022-11-25T22:08:56.991Z,4.36
2022-11-25T22:11:35.422Z,4.28
2022-11-25T22:14:11.688Z,4.18
2022-11-25T22:16:44.800Z,4.12
2022-11-25T22:19:19.794Z,4.09
2022-11-25T22:21:50.726Z,4.02
2022-11-25T22:24:19.030Z,3.90
2022-11-25T22:26:57.176Z,3.84
2022-11-25T22:29:34.621Z,3.84
2022-11-25T22:32:02.488Z,3.84
2022-11-25T22:34:29.308Z,3.83
2022-11-25T22:37:04.134Z,3.75
2022-11-25T22:39:30.576Z,3.69
2022-11-25T22:42:07.189Z,3.65
2022-11-25T22:44:40.121Z,3.59
2022-11-25T22:47:09.911Z,3.61
2022-11-25T22:49:44.013Z,3.69
2022-11-25T22:52:22.496Z,3.85
2022-11-25T22:54:49.558Z,3.85
2022-11-25T22:57:18.557Z,3.80
2022-11-25T22:59:45.417Z,3.71
2022-11-25T23:02:32.499Z,3.72
2022-11-25T23:05:05.590Z,3.74
2022-11-25T23:07:34.609Z,3.75
2022-11-25T23:10:01.149Z,3.80
2022-11-25T23:12:27.760Z,3.87
2022-11-25T23:14:54.234Z,3.99
2022-11-25T23:17:25.345Z,4.02
2022-11-25T23:19:58.599Z,4.07
2022-11-25T23:22:25.044Z,4.14
2022-11-25T23:24:51.665Z,4.12
2022-11-25T23:27:20.402Z,4.09
2022-11-25T23:29:46.909Z,4.06
2022-11-25T23:32:20.930Z,4.08
2022-11-25T23:34:50.369Z,4.03
2022-11-25T23:37:17.112Z,3.99
2022-11-25T23:39:49.787Z,4.01
2022-11-25T23:42:19.601Z,4.04
2022-11-25T23:44:46.402Z,4.08
2022-11-25T23:47:20.685Z,4.12
2022-11-25T23:49:50.626Z,4.14
2022-11-25T23:52:22.712Z,4.16
2022-11-25T23:54:51.935Z,4.18
2022-11-25T23:57:22.056Z,4.21
2022-11-25T23:59:49.112Z,4.21
